Time;durP1;ratioP1;P1;durP2;ratioP2;P2;SDS_P1;SDS_P2;PMS_P1;PMS_P2;Temp;Humidity;BMP_temperature;BMP_pressure;BME280_temperature;BME280_humidity;BME280_pressure;Samples;Min_cycle;Max_cycle;Signal;HPM_P1;HPM_P2
2021/09/09 00:00:30;;;;;;;5.97;5.38;;;;;;;;;;5014574;28;20522;-80
2021/09/09 00:02:57;;;;;;;6.90;5.88;;;;;;;;;;5014196;28;20194;-81
2021/09/09 00:05:25;;;;;;;6.40;5.78;;;;;;;;;;5014376;28;20223;-81
2021/09/09 00:07:52;;;;;;;6.15;5.60;;;;;;;;;;5013903;28;20214;-81
2021/09/09 00:10:20;;;;;;;6.35;5.72;;;;;;;;;;5014482;28;20677;-81
2021/09/09 00:12:49;;;;;;;5.50;5.10;;;;;;;;;;5013961;28;20794;-81
2021/09/09 00:15:16;;;;;;;6.40;5.78;;;;;;;;;;5013961;28;20600;-80
2021/09/09 00:17:44;;;;;;;6.32;5.72;;;;;;;;;;5013680;28;20664;-80
2021/09/09 00:20:13;;;;;;;5.80;5.15;;;;;;;;;;5013867;28;20206;-81
2021/09/09 00:22:41;;;;;;;5.50;5.00;;;;;;;;;;5013986;28;20210;-80
2021/09/09 00:25:10;;;;;;;6.53;5.45;;;;;;;;;;5013486;28;20625;-80
2021/09/09 00:27:38;;;;;;;5.90;4.95;;;;;;;;;;5013858;28;20187;-80
2021/09/09 00:30:08;;;;;;;6.70;6.00;;;;;;;;;;5013842;28;20229;-81
2021/09/09 00:32:36;;;;;;;6.50;5.85;;;;;;;;;;5013952;28;20191;-81
2021/09/09 00:35:04;;;;;;;5.50;4.93;;;;;;;;;;5013896;28;20709;-81
2021/09/09 00:37:31;;;;;;;5.38;4.88;;;;;;;;;;5013734;28;20207;-81
2021/09/09 00:39:59;;;;;;;6.45;5.85;;;;;;;;;;5013662;28;20188;-81
2021/09/09 00:42:26;;;;;;;6.38;5.75;;;;;;;;;;5013204;28;20214;-80
2021/09/09 00:44:54;;;;;;;5.50;5.03;;;;;;;;;;5013722;28;20222;-81
2021/09/09 00:47:23;;;;;;;5.30;4.90;;;;;;;;;;5013278;28;20214;-81
2021/09/09 00:49:50;;;;;;;6.68;5.38;;;;;;;;;;5013417;28;20191;-80
2021/09/09 00:52:18;;;;;;;4.88;4.45;;;;;;;;;;5013576;28;20183;-80
2021/09/09 00:54:47;;;;;;;5.43;4.93;;;;;;;;;;5012864;28;20620;-81
2021/09/09 00:57:17;;;;;;;5.38;4.88;;;;;;;;;;5013475;28;20191;-80
2021/09/09 00:59:47;;;;;;;4.90;4.43;;;;;;;;;;5013648;28;20261;-80
2021/09/09 01:02:15;;;;;;;6.53;5.05;;;;;;;;;;5013385;28;20245;-81
2021/09/09 01:04:44;;;;;;;5.05;4.53;;;;;;;;;;5013206;28;20262;-80
2021/09/09 01:07:11;;;;;;;5.35;4.82;;;;;;;;;;5013440;28;20195;-80
2021/09/09 01:09:39;;;;;;;5.28;4.78;;;;;;;;;;5013249;28;20302;-81
2021/09/09 01:12:07;;;;;;;5.35;4.85;;;;;;;;;;5013063;28;20175;-80
2021/09/09 01:14:34;;;;;;;6.30;5.70;;;;;;;;;;5012920;28;20603;-80
2021/09/09 01:17:02;;;;;;;5.35;4.85;;;;;;;;;;5013366;28;20195;-81
2021/09/09 01:19:30;;;;;;;5.32;4.82;;;;;;;;;;5013281;28;20270;-80
2021/09/09 01:21:59;;;;;;;7.40;6.10;;;;;;;;;;5012710;28;20205;-80
2021/09/09 01:24:28;;;;;;;6.65;5.95;;;;;;;;;;5011912;28;20231;-81
2021/09/09 01:26:58;;;;;;;5.82;5.28;;;;;;;;;;5012937;28;20210;-80
2021/09/09 01:29:29;;;;;;;6.20;5.60;;;;;;;;;;5012807;28;20206;-81
2021/09/09 01:31:57;;;;;;;6.53;5.47;;;;;;;;;;5012894;28;20194;-80
2021/09/09 01:34:26;;;;;;;5.72;5.00;;;;;;;;;;5013040;28;20225;-81
2021/09/09 01:36:54;;;;;;;5.60;5.07;;;;;;;;;;5013204;28;20214;-81
2021/09/09 01:39:22;;;;;;;5.38;4.88;;;;;;;;;;5013125;28;20187;-80
2021/09/09 01:41:53;;;;;;;5.75;5.22;;;;;;;;;;5013083;28;20183;-80
2021/09/09 01:44:20;;;;;;;5.05;4.53;;;;;;;;;;5012737;28;20599;-80
2021/09/09 01:46:48;;;;;;;4.93;4.50;;;;;;;;;;5012915;28;20557;-80
2021/09/09 01:49:17;;;;;;;4.68;4.28;;;;;;;;;;5013242;28;20203;-80
2021/09/09 01:51:44;;;;;;;4.80;4.40;;;;;;;;;;5012946;28;20210;-81
2021/09/09 01:54:12;;;;;;;5.13;4.68;;;;;;;;;;5012711;28;20772;-81
2021/09/09 01:56:40;;;;;;;4.80;4.30;;;;;;;;;;5012851;28;20190;-80
2021/09/09 01:59:08;;;;;;;4.97;4.57;;;;;;;;;;5012150;28;20582;-80
2021/09/09 02:01:36;;;;;;;4.35;3.95;;;;;;;;;;5012656;28;20203;-80
2021/09/09 02:04:04;;;;;;;4.00;3.60;;;;;;;;;;5012679;28;20223;-80
2021/09/09 02:06:31;;;;;;;4.65;4.25;;;;;;;;;;5011991;28;20700;-81
2021/09/09 02:08:58;;;;;;;4.38;3.97;;;;;;;;;;5012209;28;20191;-80
2021/09/09 02:11:26;;;;;;;16.30;14.60;;;;;;;;;;5011713;28;20592;-81
2021/09/09 02:13:53;;;;;;;6.65;5.95;;;;;;;;;;5012094;28;20222;-80
2021/09/09 02:16:22;;;;;;;4.78;4.38;;;;;;;;;;5011834;28;20590;-80
2021/09/09 02:18:50;;;;;;;5.65;5.15;;;;;;;;;;5011299;28;20203;-80
2021/09/09 02:21:17;;;;;;;5.55;5.05;;;;;;;;;;5012538;28;20218;-80
2021/09/09 02:23:44;;;;;;;7.15;4.20;;;;;;;;;;5011906;28;20202;-81
2021/09/09 02:26:12;;;;;;;4.28;3.83;;;;;;;;;;5012001;28;20237;-81
2021/09/09 02:28:39;;;;;;;4.80;4.18;;;;;;;;;;5012371;28;20210;-81
2021/09/09 02:31:07;;;;;;;4.43;4.03;;;;;;;;;;5012785;28;20192;-80
2021/09/09 02:33:36;;;;;;;4.45;4.05;;;;;;;;;;5012457;28;20641;-80
2021/09/09 02:36:03;;;;;;;4.95;4.20;;;;;;;;;;5012313;28;20199;-81
2021/09/09 02:38:31;;;;;;;4.22;3.88;;;;;;;;;;5012415;28;20194;-81
2021/09/09 02:40:58;;;;;;;4.35;3.80;;;;;;;;;;5012990;28;20194;-80
2021/09/09 02:43:26;;;;;;;4.68;4.28;;;;;;;;;;5015976;28;20215;-80
2021/09/09 02:45:53;;;;;;;4.57;4.18;;;;;;;;;;5015651;28;20234;-81
2021/09/09 02:48:21;;;;;;;4.07;3.78;;;;;;;;;;5016047;28;20566;-81
2021/09/09 02:50:49;;;;;;;4.47;4.07;;;;;;;;;;5011609;28;20206;-80
2021/09/09 02:53:17;;;;;;;4.15;3.75;;;;;;;;;;5014935;28;20205;-81
2021/09/09 02:55:44;;;;;;;4.93;4.32;;;;;;;;;;5014781;28;20219;-81
2021/09/09 02:58:12;;;;;;;5.13;4.63;;;;;;;;;;5014407;28;20205;-80
2021/09/09 03:00:39;;;;;;;3.70;3.40;;;;;;;;;;5013592;28;20207;-81
2021/09/09 03:03:07;;;;;;;5.68;4.97;;;;;;;;;;5015398;28;20191;-81
2021/09/09 03:05:34;;;;;;;5.10;4.20;;;;;;;;;;5013871;28;20238;-81
2021/09/09 03:08:03;;;;;;;4.38;3.88;;;;;;;;;;5014998;28;20207;-80
2021/09/09 03:10:31;;;;;;;4.38;4.05;;;;;;;;;;5014304;28;20199;-80
2021/09/09 03:12:58;;;;;;;3.83;3.53;;;;;;;;;;5014832;28;20207;-80
2021/09/09 03:15:26;;;;;;;18.60;5.60;;;;;;;;;;5015156;28;20219;-80
2021/09/09 03:17:53;;;;;;;4.60;4.20;;;;;;;;;;5016604;28;20187;-81
2021/09/09 03:20:21;;;;;;;4.78;4.30;;;;;;;;;;5011782;28;20298;-80
2021/09/09 03:22:48;;;;;;;4.40;4.03;;;;;;;;;;5015657;28;20568;-80
2021/09/09 03:25:17;;;;;;;4.43;4.03;;;;;;;;;;5015394;28;20321;-81
2021/09/09 03:27:45;;;;;;;4.50;4.15;;;;;;;;;;5015831;28;20207;-80
2021/09/09 03:30:13;;;;;;;5.03;4.50;;;;;;;;;;5016158;28;20658;-80
2021/09/09 03:32:41;;;;;;;3.85;3.42;;;;;;;;;;5016369;28;20202;-80
2021/09/09 03:35:09;;;;;;;4.93;4.43;;;;;;;;;;5013196;28;20848;-80
2021/09/09 03:37:37;;;;;;;4.38;3.97;;;;;;;;;;4996934;28;20188;-80
2021/09/09 03:40:06;;;;;;;4.30;3.92;;;;;;;;;;5010576;28;20537;-80
2021/09/09 03:42:35;;;;;;;4.85;4.35;;;;;;;;;;5015724;28;20211;-80
2021/09/09 03:45:03;;;;;;;4.32;3.92;;;;;;;;;;5014328;28;20313;-80
2021/09/09 03:47:30;;;;;;;4.35;3.95;;;;;;;;;;5015785;28;20649;-80
2021/09/09 03:49:58;;;;;;;4.28;3.88;;;;;;;;;;5015805;28;20198;-80
2021/09/09 03:52:25;;;;;;;4.60;3.78;;;;;;;;;;5014457;28;20188;-80
2021/09/09 03:54:53;;;;;;;4.55;4.15;;;;;;;;;;5014558;28;20223;-80
2021/09/09 03:57:20;;;;;;;4.15;3.83;;;;;;;;;;5015127;28;20188;-80
2021/09/09 03:59:49;;;;;;;5.00;4.55;;;;;;;;;;5014875;28;20263;-81
2021/09/09 04:02:17;;;;;;;5.30;4.80;;;;;;;;;;5015135;28;20199;-80
2021/09/09 04:04:44;;;;;;;5.43;4.90;;;;;;;;;;5014571;28;20223;-82
2021/09/09 04:07:12;;;;;;;6.18;5.57;;;;;;;;;;5015412;28;20209;-81
2021/09/09 04:09:39;;;;;;;7.28;6.47;;;;;;;;;;5014856;28;20662;-81
2021/09/09 04:12:07;;;;;;;7.25;6.55;;;;;;;;;;5014588;28;20210;-82
2021/09/09 04:14:35;;;;;;;7.53;6.72;;;;;;;;;;5001871;28;20314;-82
2021/09/09 04:17:04;;;;;;;7.15;6.32;;;;;;;;;;4993748;28;20184;-83
2021/09/09 04:19:32;;;;;;;6.63;5.78;;;;;;;;;;4994868;28;20191;-81
2021/09/09 04:22:01;;;;;;;5.95;5.35;;;;;;;;;;4994786;28;20188;-81
2021/09/09 04:24:29;;;;;;;5.28;4.78;;;;;;;;;;4994989;28;20228;-81
2021/09/09 04:26:56;;;;;;;4.45;3.80;;;;;;;;;;4994995;28;20568;-81
2021/09/09 04:29:24;;;;;;;4.90;4.25;;;;;;;;;;4995437;28;20203;-82
2021/09/09 04:31:51;;;;;;;4.65;4.07;;;;;;;;;;4995113;28;20204;-81
2021/09/09 04:34:20;;;;;;;4.88;3.67;;;;;;;;;;4994539;28;20223;-82
2021/09/09 04:36:47;;;;;;;4.40;4.00;;;;;;;;;;4995343;28;20184;-81
2021/09/09 04:39:15;;;;;;;4.93;4.53;;;;;;;;;;4995290;28;20211;-81
2021/09/09 04:41:42;;;;;;;4.82;4.43;;;;;;;;;;5003266;28;20207;-82
2021/09/09 04:44:10;;;;;;;4.97;4.40;;;;;;;;;;5014504;28;20219;-82
2021/09/09 04:46:37;;;;;;;5.47;4.97;;;;;;;;;;5013708;28;20226;-81
2021/09/09 04:49:05;;;;;;;4.50;4.10;;;;;;;;;;5014540;28;20202;-82
2021/09/09 04:51:34;;;;;;;5.13;4.63;;;;;;;;;;5014389;28;20566;-82
2021/09/09 04:54:01;;;;;;;4.45;4.05;;;;;;;;;;5014907;28;20227;-82
2021/09/09 04:56:29;;;;;;;4.28;3.80;;;;;;;;;;5014494;28;20183;-81
2021/09/09 04:58:57;;;;;;;5.30;4.80;;;;;;;;;;5014115;28;20198;-81
2021/09/09 05:01:25;;;;;;;5.07;4.57;;;;;;;;;;5014427;28;20946;-81
2021/09/09 05:03:53;;;;;;;5.38;4.22;;;;;;;;;;5014407;28;20231;-81
2021/09/09 05:06:20;;;;;;;4.47;4.07;;;;;;;;;;5013799;28;20226;-82
2021/09/09 05:08:49;;;;;;;4.90;4.40;;;;;;;;;;5014103;28;20214;-82
2021/09/09 05:11:17;;;;;;;4.43;4.03;;;;;;;;;;5014291;28;20194;-82
2021/09/09 05:13:45;;;;;;;4.88;4.00;;;;;;;;;;5014236;28;20183;-82
2021/09/09 05:16:12;;;;;;;5.18;4.13;;;;;;;;;;5013892;28;20306;-82
2021/09/09 05:18:40;;;;;;;4.57;4.25;;;;;;;;;;5013988;28;20190;-82
2021/09/09 05:21:08;;;;;;;3.83;3.53;;;;;;;;;;5013739;28;20195;-82
2021/09/09 05:23:35;;;;;;;2.80;2.60;;;;;;;;;;5013825;28;20661;-82
2021/09/09 05:26:04;;;;;;;3.33;3.03;;;;;;;;;;5014062;28;20199;-82
2021/09/09 05:28:31;;;;;;;2.55;2.30;;;;;;;;;;5011149;28;20206;-82
2021/09/09 05:30:59;;;;;;;2.88;2.67;;;;;;;;;;5012234;28;20222;-83
2021/09/09 05:33:26;;;;;;;3.17;2.90;;;;;;;;;;5012694;28;20198;-82
2021/09/09 05:35:55;;;;;;;3.03;2.83;;;;;;;;;;5011484;28;20515;-83
2021/09/09 05:38:22;;;;;;;2.90;2.70;;;;;;;;;;5012199;28;20263;-82
2021/09/09 05:40:50;;;;;;;3.08;2.72;;;;;;;;;;5011316;28;20187;-82
2021/09/09 05:43:19;;;;;;;3.00;2.80;;;;;;;;;;5011293;28;20270;-83
2021/09/09 05:45:47;;;;;;;3.20;2.95;;;;;;;;;;5009777;28;20221;-82
2021/09/09 05:48:14;;;;;;;3.33;3.03;;;;;;;;;;5011798;28;20213;-83
2021/09/09 05:50:42;;;;;;;2.78;2.58;;;;;;;;;;5011740;28;20205;-83
2021/09/09 05:53:09;;;;;;;3.88;3.58;;;;;;;;;;5012901;28;20293;-83
2021/09/09 05:55:37;;;;;;;5.72;3.95;;;;;;;;;;5012497;28;20250;-84
2021/09/09 05:58:05;;;;;;;4.63;4.20;;;;;;;;;;5012200;28;20739;-83
2021/09/09 06:00:34;;;;;;;3.58;3.25;;;;;;;;;;5008916;28;20214;-83
2021/09/09 06:03:02;;;;;;;3.85;3.55;;;;;;;;;;5005385;28;20218;-83
2021/09/09 06:05:32;;;;;;;4.28;3.88;;;;;;;;;;5007397;28;20233;-83
2021/09/09 06:08:00;;;;;;;3.78;3.47;;;;;;;;;;5012235;28;20817;-83
2021/09/09 06:10:27;;;;;;;3.58;3.28;;;;;;;;;;5012820;28;20201;-83
2021/09/09 06:12:55;;;;;;;3.50;3.20;;;;;;;;;;5012700;28;20776;-83
2021/09/09 06:15:23;;;;;;;4.32;3.92;;;;;;;;;;5013043;28;20223;-83
2021/09/09 06:17:51;;;;;;;4.10;3.70;;;;;;;;;;5016770;28;20191;-84
2021/09/09 06:20:19;;;;;;;4.80;4.40;;;;;;;;;;5017059;28;20277;-82
2021/09/09 06:22:46;;;;;;;4.95;4.40;;;;;;;;;;5017810;28;20669;-83
2021/09/09 06:25:14;;;;;;;4.50;4.10;;;;;;;;;;5017815;28;20607;-83
2021/09/09 06:27:41;;;;;;;4.82;4.43;;;;;;;;;;5017222;28;20229;-83
2021/09/09 06:30:10;;;;;;;4.68;3.80;;;;;;;;;;5016045;28;20209;-84
2021/09/09 06:32:37;;;;;;;4.43;4.03;;;;;;;;;;5016072;28;20871;-84
2021/09/09 06:35:08;;;;;;;4.70;4.28;;;;;;;;;;5016724;28;20249;-83
2021/09/09 06:37:35;;;;;;;5.38;4.97;;;;;;;;;;5017202;28;20733;-84
2021/09/09 06:40:03;;;;;;;7.20;5.22;;;;;;;;;;5016774;28;20195;-84
2021/09/09 06:42:30;;;;;;;5.43;4.97;;;;;;;;;;5016471;28;20294;-81
2021/09/09 06:44:58;;;;;;;4.65;4.25;;;;;;;;;;5016786;28;20229;-83
2021/09/09 06:47:25;;;;;;;4.85;4.45;;;;;;;;;;5016083;28;20699;-83
2021/09/09 06:49:53;;;;;;;5.18;4.78;;;;;;;;;;5016053;28;20203;-82
2021/09/09 06:52:22;;;;;;;4.70;4.30;;;;;;;;;;5016563;28;20219;-83
2021/09/09 06:54:49;;;;;;;6.47;4.82;;;;;;;;;;5017462;28;20219;-82
2021/09/09 06:57:17;;;;;;;6.03;4.55;;;;;;;;;;5016390;28;20195;-82
2021/09/09 06:59:44;;;;;;;4.82;4.30;;;;;;;;;;5016281;28;20199;-82
2021/09/09 07:02:12;;;;;;;5.57;5.07;;;;;;;;;;5016206;28;20634;-83
2021/09/09 07:04:39;;;;;;;5.05;4.57;;;;;;;;;;5015693;28;20223;-83
2021/09/09 07:07:06;;;;;;;5.82;5.32;;;;;;;;;;5015787;28;20289;-83
2021/09/09 07:09:35;;;;;;;7.65;6.95;;;;;;;;;;5015563;28;20227;-83
2021/09/09 07:12:04;;;;;;;6.22;5.63;;;;;;;;;;5015903;28;20191;-84
2021/09/09 07:14:31;;;;;;;7.95;7.28;;;;;;;;;;5016480;28;20591;-84
2021/09/09 07:16:59;;;;;;;10.73;6.18;;;;;;;;;;5016166;28;20198;-83
2021/09/09 07:19:26;;;;;;;6.90;6.22;;;;;;;;;;5015936;28;20351;-83
2021/09/09 07:21:54;;;;;;;8.23;6.90;;;;;;;;;;5016659;28;20175;-84
2021/09/09 07:24:22;;;;;;;7.28;6.00;;;;;;;;;;5015935;28;20243;-83
2021/09/09 07:26:51;;;;;;;7.82;7.13;;;;;;;;;;5016062;28;20205;-83
2021/09/09 07:29:18;;;;;;;8.10;7.25;;;;;;;;;;5014121;28;20207;-84
2021/09/09 07:31:47;;;;;;;8.18;7.38;;;;;;;;;;5016208;28;20560;-83
2021/09/09 07:34:14;;;;;;;7.65;6.95;;;;;;;;;;5015732;28;20305;-83
2021/09/09 07:36:42;;;;;;;8.40;7.60;;;;;;;;;;5015813;28;20187;-84
2021/09/09 07:39:10;;;;;;;8.48;7.78;;;;;;;;;;5015200;28;20638;-83
2021/09/09 07:41:37;;;;;;;8.80;7.47;;;;;;;;;;5015540;28;20187;-85
2021/09/09 07:44:06;;;;;;;8.73;7.82;;;;;;;;;;5015444;28;20230;-83
2021/09/09 07:46:34;;;;;;;7.53;6.93;;;;;;;;;;5014827;28;20203;-84
2021/09/09 07:49:01;;;;;;;7.85;7.05;;;;;;;;;;5015569;28;20210;-84
2021/09/09 07:51:29;;;;;;;7.63;6.82;;;;;;;;;;5015148;28;20688;-84
2021/09/09 07:53:56;;;;;;;6.97;6.25;;;;;;;;;;5015068;28;20219;-84
2021/09/09 07:56:24;;;;;;;8.30;6.55;;;;;;;;;;5015401;28;20187;-83
2021/09/09 07:58:52;;;;;;;6.18;5.57;;;;;;;;;;5015714;28;20207;-85
2021/09/09 08:01:22;;;;;;;5.80;5.30;;;;;;;;;;5015579;28;20657;-85
2021/09/09 08:03:49;;;;;;;6.15;5.55;;;;;;;;;;5015021;28;20195;-84
2021/09/09 08:06:17;;;;;;;5.20;4.70;;;;;;;;;;5014969;28;20203;-84
2021/09/09 08:08:45;;;;;;;5.63;5.10;;;;;;;;;;5014555;28;20206;-84
2021/09/09 08:11:12;;;;;;;5.03;4.63;;;;;;;;;;5015447;28;20194;-84
2021/09/09 08:13:40;;;;;;;6.10;5.00;;;;;;;;;;5014588;28;20577;-83
2021/09/09 08:16:07;;;;;;;5.40;4.53;;;;;;;;;;5014991;28;20192;-84
2021/09/09 08:18:36;;;;;;;6.28;5.68;;;;;;;;;;5014735;28;20187;-84
2021/09/09 08:21:04;;;;;;;5.18;4.15;;;;;;;;;;5014861;28;20206;-85
2021/09/09 08:23:32;;;;;;;5.05;4.65;;;;;;;;;;5014536;28;20196;-85
2021/09/09 08:25:59;;;;;;;4.88;4.55;;;;;;;;;;5014936;28;20203;-84
2021/09/09 08:28:27;;;;;;;4.97;4.47;;;;;;;;;;5014092;28;20592;-84
2021/09/09 08:30:54;;;;;;;5.45;4.63;;;;;;;;;;5014309;28;20209;-84
2021/09/09 08:33:22;;;;;;;4.55;4.18;;;;;;;;;;5014692;28;20567;-85
2021/09/09 08:35:50;;;;;;;4.72;4.32;;;;;;;;;;5014301;28;20233;-86
2021/09/09 08:38:18;;;;;;;4.72;4.35;;;;;;;;;;5014834;28;20684;-83
2021/09/09 08:40:50;;;;;;;4.65;4.35;;;;;;;;;;5013714;28;20203;-84
2021/09/09 08:43:17;;;;;;;4.60;4.20;;;;;;;;;;5014463;28;20184;-84
2021/09/09 08:45:47;;;;;;;4.95;4.55;;;;;;;;;;5013921;28;20225;-84
2021/09/09 08:48:15;;;;;;;4.80;4.40;;;;;;;;;;5014099;28;20195;-85
2021/09/09 08:50:42;;;;;;;4.82;4.45;;;;;;;;;;5013943;28;20657;-84
2021/09/09 08:53:11;;;;;;;4.90;4.53;;;;;;;;;;5014387;28;20263;-84
2021/09/09 08:55:39;;;;;;;4.78;4.43;;;;;;;;;;5014032;28;20227;-85
2021/09/09 08:58:07;;;;;;;5.32;4.72;;;;;;;;;;5014404;28;20555;-84
2021/09/09 09:00:34;;;;;;;5.57;4.65;;;;;;;;;;5014266;28;20184;-84
2021/09/09 09:03:02;;;;;;;4.47;4.15;;;;;;;;;;5013961;28;20191;-83
2021/09/09 09:05:30;;;;;;;5.50;5.10;;;;;;;;;;5014175;28;20222;-85
2021/09/09 09:07:59;;;;;;;5.88;5.38;;;;;;;;;;5014328;28;20191;-85
2021/09/09 09:10:29;;;;;;;6.13;5.53;;;;;;;;;;5013222;28;20234;-84
2021/09/09 09:12:56;;;;;;;5.68;5.25;;;;;;;;;;5013563;28;20194;-85
2021/09/09 09:15:26;;;;;;;5.35;4.95;;;;;;;;;;5013847;28;20222;-85
2021/09/09 09:18:01;;;;;;;4.97;4.57;;;;;;;;;;5013484;28;20592;-85
2021/09/09 09:20:46;;;;;;;5.25;4.82;;;;;;;;;;5013772;28;20387;-83
2021/09/09 09:23:18;;;;;;;6.00;5.10;;;;;;;;;;5013781;28;20187;-84
2021/09/09 09:25:52;;;;;;;4.72;4.38;;;;;;;;;;5013913;28;20235;-84
2021/09/09 09:28:42;;;;;;;5.53;5.03;;;;;;;;;;5014495;28;20193;-86
2021/09/09 09:31:11;;;;;;;5.15;4.70;;;;;;;;;;5014433;28;20634;-84
2021/09/09 09:33:41;;;;;;;6.75;5.05;;;;;;;;;;5013977;28;20222;-84
2021/09/09 09:36:21;;;;;;;4.95;4.47;;;;;;;;;;5014131;28;20179;-86
2021/09/09 09:38:50;;;;;;;4.07;3.78;;;;;;;;;;5014391;28;20598;-85
2021/09/09 09:41:21;;;;;;;5.53;5.03;;;;;;;;;;5014425;28;20206;-84
2021/09/09 09:43:59;;;;;;;4.85;4.45;;;;;;;;;;5014665;28;20190;-84
2021/09/09 09:46:31;;;;;;;5.60;5.10;;;;;;;;;;5014975;28;20193;-84
2021/09/09 09:49:21;;;;;;;4.25;3.95;;;;;;;;;;5014673;28;20196;-85
2021/09/09 09:51:49;;;;;;;5.10;4.60;;;;;;;;;;5013272;28;20291;-84
2021/09/09 09:54:19;;;;;;;4.35;3.95;;;;;;;;;;5020237;28;20226;-85
2021/09/09 09:56:49;;;;;;;5.40;4.90;;;;;;;;;;5034530;28;20657;-84
2021/09/09 09:59:17;;;;;;;4.80;4.47;;;;;;;;;;5033450;28;20221;-84
2021/09/09 10:01:45;;;;;;;8.32;6.50;;;;;;;;;;5034533;28;20191;-83
2021/09/09 10:04:15;;;;;;;6.10;5.60;;;;;;;;;;5033873;28;20229;-83
2021/09/09 10:06:44;;;;;;;3.95;3.65;;;;;;;;;;5028889;28;20311;-85
2021/09/09 10:09:14;;;;;;;5.15;4.68;;;;;;;;;;5014828;28;20266;-83
2021/09/09 10:11:42;;;;;;;5.13;4.72;;;;;;;;;;5014190;28;20652;-83
2021/09/09 10:14:19;;;;;;;5.00;4.60;;;;;;;;;;5015173;28;20229;-82
2021/09/09 10:16:48;;;;;;;4.18;3.88;;;;;;;;;;5014602;28;20185;-83
2021/09/09 10:19:27;;;;;;;4.82;4.43;;;;;;;;;;5014970;28;20194;-84
2021/09/09 10:22:10;;;;;;;4.82;4.43;;;;;;;;;;5013491;28;20191;-83
2021/09/09 10:24:41;;;;;;;5.47;4.97;;;;;;;;;;5013948;28;20736;-83
2021/09/09 10:27:25;;;;;;;5.30;4.85;;;;;;;;;;5014556;28;20187;-83
2021/09/09 10:30:00;;;;;;;4.80;4.40;;;;;;;;;;5013958;28;20211;-85
2021/09/09 10:32:58;;;;;;;4.82;4.03;;;;;;;;;;5013651;28;20665;-82
2021/09/09 10:35:31;;;;;;;5.38;4.88;;;;;;;;;;5014062;28;20771;-83
2021/09/09 10:38:15;;;;;;;4.70;4.30;;;;;;;;;;5013704;28;20206;-83
2021/09/09 10:40:45;;;;;;;4.80;4.40;;;;;;;;;;5001575;28;20206;-82
2021/09/09 10:43:15;;;;;;;4.07;3.78;;;;;;;;;;5014774;28;20188;-83
2021/09/09 10:45:48;;;;;;;3.88;3.58;;;;;;;;;;5014577;28;20250;-83
2021/09/09 10:48:23;;;;;;;4.60;4.30;;;;;;;;;;5014165;28;20188;-83
2021/09/09 10:51:01;;;;;;;4.80;4.40;;;;;;;;;;5013631;28;20668;-82
2021/09/09 10:53:39;;;;;;;4.43;4.03;;;;;;;;;;5013237;28;20191;-83
2021/09/09 10:56:12;;;;;;;5.22;4.72;;;;;;;;;;5013150;28;20195;-82
2021/09/09 10:58:41;;;;;;;4.10;3.80;;;;;;;;;;5013454;28;20183;-82
2021/09/09 11:01:10;;;;;;;3.85;3.55;;;;;;;;;;5014213;28;20195;-82
2021/09/09 11:03:40;;;;;;;3.80;3.50;;;;;;;;;;5015943;28;20184;-83
2021/09/09 11:06:10;;;;;;;6.40;3.75;;;;;;;;;;5017414;28;20180;-83
2021/09/09 11:08:38;;;;;;;3.45;3.20;;;;;;;;;;5016921;28;20191;-83
2021/09/09 11:11:07;;;;;;;3.85;3.55;;;;;;;;;;5017007;28;20232;-84
2021/09/09 11:13:38;;;;;;;3.53;3.33;;;;;;;;;;5016552;28;20207;-83
2021/09/09 11:16:22;;;;;;;3.63;3.33;;;;;;;;;;5016885;28;20214;-83
2021/09/09 11:18:50;;;;;;;3.95;3.65;;;;;;;;;;5015091;28;20650;-83
2021/09/09 11:21:20;;;;;;;3.65;3.35;;;;;;;;;;5016919;28;20557;-83
2021/09/09 11:23:50;;;;;;;3.97;3.70;;;;;;;;;;5016427;28;20207;-83
2021/09/09 11:26:19;;;;;;;4.25;3.95;;;;;;;;;;5017134;28;20192;-84
2021/09/09 11:28:48;;;;;;;5.03;4.63;;;;;;;;;;5016515;28;20187;-83
2021/09/09 11:31:19;;;;;;;4.15;3.85;;;;;;;;;;5015970;28;20692;-83
2021/09/09 11:33:55;;;;;;;3.60;3.40;;;;;;;;;;5015811;28;20213;-84
2021/09/09 11:36:25;;;;;;;3.60;3.38;;;;;;;;;;5017028;28;20187;-83
2021/09/09 11:38:54;;;;;;;4.35;4.03;;;;;;;;;;5015629;28;20183;-83
2021/09/09 11:41:24;;;;;;;4.45;4.05;;;;;;;;;;5015755;28;20183;-84
2021/09/09 11:43:54;;;;;;;4.10;3.50;;;;;;;;;;5016581;28;20727;-83
2021/09/09 11:46:31;;;;;;;3.60;3.40;;;;;;;;;;5016949;28;20199;-83
2021/09/09 11:49:03;;;;;;;4.03;3.67;;;;;;;;;;5016456;28;20187;-82
2021/09/09 11:51:33;;;;;;;4.38;4.03;;;;;;;;;;5016347;28;20214;-84
2021/09/09 11:54:01;;;;;;;4.10;3.80;;;;;;;;;;5016681;28;20223;-83
2021/09/09 11:56:29;;;;;;;4.15;3.85;;;;;;;;;;5017384;28;20191;-83
2021/09/09 11:59:00;;;;;;;3.40;3.20;;;;;;;;;;5016203;28;20671;-83
2021/09/09 12:01:29;;;;;;;3.97;3.67;;;;;;;;;;5015977;28;20206;-84
2021/09/09 12:03:59;;;;;;;3.58;3.38;;;;;;;;;;5016129;28;20489;-83
2021/09/09 12:06:27;;;;;;;6.57;4.10;;;;;;;;;;5017624;28;20206;-84
2021/09/09 12:08:55;;;;;;;3.95;3.65;;;;;;;;;;5016208;28;20577;-83
2021/09/09 12:11:22;;;;;;;4.13;3.83;;;;;;;;;;5016438;28;20587;-83
2021/09/09 12:13:50;;;;;;;4.00;3.70;;;;;;;;;;5017011;28;20198;-83
2021/09/09 12:16:21;;;;;;;3.95;3.63;;;;;;;;;;5015830;28;20195;-84
2021/09/09 12:18:51;;;;;;;3.70;3.40;;;;;;;;;;5015997;28;20202;-83
2021/09/09 12:21:22;;;;;;;4.13;3.83;;;;;;;;;;5015251;28;20645;-83
2021/09/09 12:24:05;;;;;;;4.43;4.13;;;;;;;;;;5015581;28;20648;-84
2021/09/09 12:26:34;;;;;;;5.15;4.75;;;;;;;;;;5014400;28;20198;-84
2021/09/09 12:29:12;;;;;;;4.25;3.95;;;;;;;;;;5015179;28;20565;-83
2021/09/09 12:31:40;;;;;;;3.75;3.45;;;;;;;;;;5014285;28;20203;-83
2021/09/09 12:34:12;;;;;;;3.85;3.55;;;;;;;;;;5015192;28;20693;-84
2021/09/09 12:36:44;;;;;;;4.20;3.90;;;;;;;;;;5014528;28;20637;-83
2021/09/09 12:39:12;;;;;;;4.03;3.72;;;;;;;;;;5015399;28;20203;-83
2021/09/09 12:41:40;;;;;;;3.70;3.40;;;;;;;;;;5014521;28;20179;-83
2021/09/09 12:44:18;;;;;;;4.10;3.80;;;;;;;;;;5014970;28;20728;-83
2021/09/09 12:46:48;;;;;;;3.35;3.05;;;;;;;;;;5014674;28;20187;-83
2021/09/09 12:49:26;;;;;;;3.28;3.08;;;;;;;;;;5015014;28;20657;-83
2021/09/09 12:52:10;;;;;;;3.58;3.33;;;;;;;;;;5014832;28;20207;-83
2021/09/09 12:54:39;;;;;;;3.25;3.05;;;;;;;;;;5014046;28;20607;-83
2021/09/09 12:57:08;;;;;;;3.40;3.13;;;;;;;;;;5014550;28;20245;-82
2021/09/09 12:59:35;;;;;;;3.95;3.65;;;;;;;;;;5013850;28;20258;-82
2021/09/09 13:02:03;;;;;;;3.83;3.53;;;;;;;;;;5014291;28;20190;-83
2021/09/09 13:04:30;;;;;;;5.25;4.85;;;;;;;;;;5014228;28;20732;-83
2021/09/09 13:06:59;;;;;;;4.47;4.18;;;;;;;;;;5014480;28;20188;-84
2021/09/09 13:09:29;;;;;;;3.50;3.28;;;;;;;;;;5014633;28;20180;-83
2021/09/09 13:11:57;;;;;;;3.42;3.22;;;;;;;;;;5013685;28;20572;-83
2021/09/09 13:14:24;;;;;;;3.67;3.40;;;;;;;;;;5014158;28;20234;-83
2021/09/09 13:16:51;;;;;;;3.33;3.13;;;;;;;;;;5015650;28;20205;-83
2021/09/09 13:19:19;;;;;;;4.38;3.97;;;;;;;;;;5014765;28;20202;-83
2021/09/09 13:21:46;;;;;;;4.30;4.00;;;;;;;;;;5014049;28;20195;-83
2021/09/09 13:24:14;;;;;;;4.13;3.80;;;;;;;;;;5014149;28;20242;-83
2021/09/09 13:26:43;;;;;;;4.30;4.00;;;;;;;;;;5014012;28;20285;-83
2021/09/09 13:29:10;;;;;;;4.55;4.25;;;;;;;;;;5015222;28;20190;-83
2021/09/09 13:31:42;;;;;;;4.63;4.10;;;;;;;;;;5014596;28;20221;-82
2021/09/09 13:34:10;;;;;;;3.70;3.40;;;;;;;;;;5015327;28;20223;-83
2021/09/09 13:36:42;;;;;;;3.97;3.67;;;;;;;;;;5013381;28;20595;-83
2021/09/09 13:39:09;;;;;;;4.35;3.95;;;;;;;;;;5014029;28;20207;-83
2021/09/09 13:41:47;;;;;;;4.45;4.15;;;;;;;;;;5015010;28;20191;-82
2021/09/09 13:44:16;;;;;;;4.53;4.22;;;;;;;;;;5014604;28;20222;-83
2021/09/09 13:46:43;;;;;;;3.97;3.67;;;;;;;;;;5015641;28;20366;-82
2021/09/09 13:49:10;;;;;;;4.93;3.58;;;;;;;;;;5013659;28;20630;-84
2021/09/09 13:51:38;;;;;;;4.25;3.95;;;;;;;;;;5014335;28;20215;-83
2021/09/09 13:54:05;;;;;;;4.13;3.83;;;;;;;;;;5014262;28;20215;-83
2021/09/09 13:56:33;;;;;;;5.28;3.63;;;;;;;;;;5015151;28;20205;-83
2021/09/09 13:59:04;;;;;;;3.65;3.45;;;;;;;;;;5015168;28;20191;-83
2021/09/09 14:01:31;;;;;;;3.63;3.33;;;;;;;;;;5014659;28;20199;-84
2021/09/09 14:03:58;;;;;;;3.17;2.97;;;;;;;;;;5013377;28;20222;-83
2021/09/09 14:06:26;;;;;;;3.63;3.40;;;;;;;;;;5028520;28;20213;-83
2021/09/09 14:08:53;;;;;;;4.00;3.70;;;;;;;;;;5033168;28;20185;-82
2021/09/09 14:11:21;;;;;;;3.35;3.15;;;;;;;;;;4995498;28;20270;-83
2021/09/09 14:13:48;;;;;;;3.65;3.35;;;;;;;;;;4994658;28;20212;-84
2021/09/09 14:16:17;;;;;;;3.92;3.63;;;;;;;;;;4995104;28;20208;-84
2021/09/09 14:18:44;;;;;;;3.80;3.53;;;;;;;;;;4996539;28;20684;-83
2021/09/09 14:21:12;;;;;;;3.45;3.25;;;;;;;;;;4995039;28;20188;-83
2021/09/09 14:23:40;;;;;;;3.13;2.92;;;;;;;;;;4993870;28;20203;-83
2021/09/09 14:26:07;;;;;;;3.15;2.95;;;;;;;;;;4999082;28;20218;-84
2021/09/09 14:28:35;;;;;;;3.55;3.25;;;;;;;;;;5000704;28;20208;-84
2021/09/09 14:31:02;;;;;;;4.13;3.83;;;;;;;;;;4993875;28;20208;-83
2021/09/09 14:33:31;;;;;;;3.20;3.00;;;;;;;;;;4993964;28;20227;-84
2021/09/09 14:35:58;;;;;;;3.00;2.80;;;;;;;;;;5004138;28;20206;-84
2021/09/09 14:38:26;;;;;;;3.55;3.28;;;;;;;;;;5016586;28;20206;-83
2021/09/09 14:40:53;;;;;;;4.07;3.78;;;;;;;;;;5019239;28;20198;-84
2021/09/09 14:43:21;;;;;;;2.80;2.60;;;;;;;;;;5023159;28;20202;-83
2021/09/09 14:45:48;;;;;;;2.75;2.55;;;;;;;;;;5038542;28;20218;-83
2021/09/09 14:48:16;;;;;;;2.60;2.50;;;;;;;;;;5038276;28;20200;-84
2021/09/09 14:50:45;;;;;;;3.35;3.15;;;;;;;;;;5038773;28;20186;-83
2021/09/09 14:53:12;;;;;;;4.03;3.05;;;;;;;;;;5031039;28;20305;-83